Moffett Field, CA

11:07 PM PDT on August 28, 2015 (GMT -0700)
Moffett Federal Air Field | Change Station
CLOSE
Current Station
Airport
Location: Moffett NAS,
Elevation: 39 ft
Nearby Weather Stations

Elev 39 ft 37.41 °N, 122.05 °W | Updated 3 minutes ago

Clear
Clear
68 °F
Feels Like 68 °F
N
8
Wind Variable Wind from NNW

Today
High -- | Low -- °F
--% Chance of Precip.
Yesterday
High -- | Low -- °F
Precip. -- in
6:35 AM 7:43 PM
Full, 100% visible
Pressure 29.92 in
Visibility 10.0 miles
Clouds Mostly Cloudy 700 ft
Dew Point 64 °F
Humidity 88%
Rainfall 0.00 in
Snow Depth Not available.
UV 0 out of 12
Pollen 6.70 out of 12
Ozone Good
PM2.5 Good
Flu Activity Not available.
SPECI KNUQ 290604Z 34007KT 10SM BKN007 20/18 A2992 RMK AO2 CIG 007V011

More Conditions Fewer Conditions

Pressure 29.92 in
Visibility 10.0 miles
Clouds Mostly Cloudy 700 ft
Dew Point 64 °F
Humidity 88%
Rainfall 0.00 in
Snow Depth Not available.
UV 0 out of 12
Pollen 6.70 out of 12
Ozone Good
PM2.5 Good
Flu Activity Not available.
SPECI KNUQ 290604Z 34007KT 10SM BKN007 20/18 A2992 RMK AO2 CIG 007V011

More Conditions Fewer Conditions

10-Day Weather Forecast

Almanac

Astronomy

Aug. 28, 2015 Rise Set
Actual Time 6:35 AM PDT 7:43 PM PDT
Civil Twilight 6:08 AM PDT 8:09 PM PDT
Nautical Twilight 5:36 AM PDT 8:41 PM PDT
Astronomical Twilight 5:02 AM PDT 9:15 PM PDT
Moon 7:00 PM PDT (8/28) 5:17 AM PDT (8/28)
Length of Visible Light 14h 01m
Length of Day
13h 07m
Tomorrow will be 2m 16s shorter.
Full, 100% of the Moon is Illuminated
Aug 29
Full
Aug 29
Full
Sep 5
Last Quarter
Sep 13
New
Sep 21
First Quarter

Yesterday's Extremes

State Highs State Lows

Community

WunderPhotos

Upload Photos

1,850,622 photos uploaded!

Nearby

Air Quality

  Air Quality AQ Index Pollutant
Yesterday Good
PM2.5
Yesterday Good
OZONE
Current Good
OZONE
Current Good
PM2.5
Friday Good
OZONE
Saturday Good
PM2.5
Sunday Good
PM2.5
Monday Good
OZONE
Tuesday Good
OZONE
Wednesday Good
OZONE

Snow Depth

Station Depth Elevation
Blue Lakes 0 in 8000 ft
Forestdale Creek 0 in 8029 ft
Leavitt Lake 0 in 9400 ft
Echo Peak 0 in 7800 ft
Burnside Lake 0 in 8139 ft

Earthquake Activity

City Distance Mag. Time & Date
The Geysers, California 102 miles 2.5 11:37 PM PDT
2015-08-26
Minimum magnitude displayed is 2.5.

Coastal Water Temperatures

Place Temperature
No Stations Reporting

Nearby Weather Stations